createdAt,value
2022-08-05T00:01:35.919Z,50.48
2022-08-05T00:04:17.866Z,50.67
2022-08-05T00:06:47.279Z,50.69
2022-08-05T00:09:19.372Z,50.98
2022-08-05T00:11:49.437Z,50.74
2022-08-05T00:14:27.863Z,50.89
2022-08-05T00:17:02.073Z,50.86
2022-08-05T00:19:33.286Z,51.14
2022-08-05T00:22:04.350Z,51.26
2022-08-05T00:24:32.693Z,51.12
2022-08-05T00:27:04.714Z,51.33
2022-08-05T00:29:38.917Z,51.88
2022-08-05T00:32:12.703Z,51.85
2022-08-05T00:35:03.501Z,52.25
2022-08-05T00:37:50.617Z,52.66
2022-08-05T00:40:27.114Z,53.31
2022-08-05T00:43:00.582Z,52.84
2022-08-05T00:45:42.768Z,52.90
2022-08-05T00:48:31.266Z,53.40
2022-08-05T00:50:59.934Z,53.73
2022-08-05T00:53:59.933Z,54.06
2022-08-05T00:56:25.209Z,54.00
2022-08-05T00:58:53.652Z,54.44
2022-08-05T01:01:42.968Z,54.44
2022-08-05T01:04:13.547Z,54.57
2022-08-05T01:06:43.728Z,54.70
2022-08-05T01:09:17.401Z,54.76
2022-08-05T01:11:53.847Z,55.21
2022-08-05T01:14:33.672Z,55.51
2022-08-05T01:17:32.288Z,55.37
2022-08-05T01:20:17.201Z,55.59
2022-08-05T01:22:57.343Z,55.57
2022-08-05T01:25:54.087Z,56.16
2022-08-05T01:28:25.288Z,56.41
2022-08-05T01:31:03.014Z,56.58
2022-08-05T01:33:36.112Z,57.03
2022-08-05T01:36:12.889Z,57.26
2022-08-05T01:38:48.468Z,57.14
2022-08-05T01:41:25.492Z,57.02
2022-08-05T01:43:55.817Z,56.94
2022-08-05T01:46:41.470Z,57.22
2022-08-05T01:49:23.858Z,57.27
2022-08-05T01:52:17.813Z,57.37
2022-08-05T01:54:52.078Z,57.43
2022-08-05T01:58:11.341Z,57.24
2022-08-05T02:00:30.998Z,57.56
2022-08-05T02:03:04.482Z,57.71
2022-08-05T02:05:36.770Z,57.82
2022-08-05T02:08:05.934Z,57.51
2022-08-05T02:10:48.565Z,57.61
2022-08-05T02:13:25.933Z,58.14
2022-08-05T02:16:02.884Z,58.49
2022-08-05T02:18:44.807Z,58.71
2022-08-05T02:21:18.483Z,59.32
2022-08-05T02:23:50.342Z,59.34
2022-08-05T02:26:26.545Z,59.62
2022-08-05T02:28:56.229Z,59.55
2022-08-05T02:31:34.561Z,59.82
2022-08-05T02:34:11.111Z,59.93
2022-08-05T02:36:44.155Z,60.25
2022-08-05T02:39:16.504Z,59.95
2022-08-05T02:42:00.519Z,60.07
2022-08-05T02:44:34.416Z,60.30
2022-08-05T02:47:09.310Z,60.35
2022-08-05T02:49:42.443Z,60.05
2022-08-05T02:52:29.304Z,59.81
2022-08-05T02:55:05.017Z,60.07
2022-08-05T02:58:09.192Z,60.05
2022-08-05T03:00:25.421Z,60.26
2022-08-05T03:02:56.332Z,60.35
2022-08-05T03:06:55.502Z,60.81
2022-08-05T03:08:14.845Z,61.40
2022-08-05T03:11:53.817Z,61.39
2022-08-05T03:13:52.209Z,61.69
2022-08-05T03:16:22.396Z,61.69
2022-08-05T03:18:51.459Z,61.80
2022-08-05T03:21:20.414Z,61.83
2022-08-05T03:23:50.425Z,62.05
2022-08-05T03:26:31.295Z,62.51
2022-08-05T03:29:01.306Z,62.85
2022-08-05T03:31:55.639Z,62.78
2022-08-05T03:34:19.201Z,63.08
2022-08-05T03:36:52.872Z,62.74
2022-08-05T03:39:27.255Z,62.33
2022-08-05T03:41:57.023Z,62.07
2022-08-05T03:44:25.730Z,61.65
2022-08-05T03:46:57.283Z,60.95
2022-08-05T03:49:30.873Z,60.47
2022-08-05T03:52:50.074Z,60.16
2022-08-05T03:55:53.478Z,59.78
2022-08-05T03:57:41.775Z,59.38
2022-08-05T04:00:15.945Z,58.84
2022-08-05T04:02:52.109Z,58.42
2022-08-05T04:05:33.430Z,58.04
2022-08-05T04:08:05.807Z,57.80
2022-08-05T04:10:54.010Z,56.71
2022-08-05T04:13:23.331Z,56.22
2022-08-05T04:16:03.150Z,55.72
2022-08-05T04:18:34.397Z,54.82
2022-08-05T04:21:04.210Z,54.01
2022-08-05T04:24:05.597Z,54.20
2022-08-05T04:26:22.830Z,52.55
2022-08-05T04:28:52.081Z,51.80
2022-08-05T04:31:20.532Z,51.16
2022-08-05T04:34:17.450Z,51.07
2022-08-05T04:36:49.827Z,50.58
2022-08-05T04:39:19.543Z,50.51
2022-08-05T04:41:48.925Z,49.82
2022-08-05T04:44:21.480Z,49.31
2022-08-05T04:46:59.717Z,48.78
2022-08-05T04:49:39.196Z,48.50
2022-08-05T04:52:16.441Z,48.53
2022-08-05T04:54:44.597Z,47.48
2022-08-05T04:57:12.811Z,47.03
2022-08-05T04:59:41.132Z,46.67
2022-08-05T05:02:37.045Z,47.35
2022-08-05T05:05:01.844Z,46.12
2022-08-05T05:07:32.152Z,45.15
2022-08-05T05:10:04.580Z,43.79
2022-08-05T05:12:32.975Z,44.00
2022-08-05T05:15:03.904Z,43.04
2022-08-05T05:17:55.663Z,42.39
2022-08-05T05:20:28.360Z,41.57
2022-08-05T05:22:58.775Z,41.17
2022-08-05T05:25:33.038Z,41.09
2022-08-05T05:28:10.403Z,40.92
2022-08-05T05:30:39.961Z,40.30
2022-08-05T05:33:17.213Z,39.09
2022-08-05T05:35:48.267Z,38.49
2022-08-05T05:38:22.901Z,38.37
2022-08-05T05:40:57.199Z,37.67
2022-08-05T05:43:56.872Z,37.38
2022-08-05T05:46:17.296Z,37.13
2022-08-05T05:48:48.884Z,35.51
2022-08-05T05:51:25.601Z,33.86
2022-08-05T05:53:58.832Z,34.24
2022-08-05T05:56:33.255Z,33.46
2022-08-05T05:59:05.429Z,32.30
2022-08-05T06:01:37.910Z,31.74
2022-08-05T06:04:12.763Z,31.49
2022-08-05T06:06:43.310Z,31.96
2022-08-05T06:09:25.686Z,32.07
2022-08-05T06:12:04.904Z,31.68
2022-08-05T06:14:34.886Z,30.13
2022-08-05T06:17:21.692Z,31.01
2022-08-05T06:19:57.070Z,29.71
2022-08-05T06:22:30.476Z,29.20
2022-08-05T06:25:59.324Z,28.78
2022-08-05T06:28:11.224Z,27.89
2022-08-05T06:30:41.362Z,27.36
2022-08-05T06:33:10.792Z,26.73
2022-08-05T06:36:03.568Z,26.42
2022-08-05T06:38:36.520Z,26.69
2022-08-05T06:41:07.818Z,25.75
2022-08-05T06:43:58.162Z,25.89
2022-08-05T06:46:30.069Z,26.16
2022-08-05T06:49:01.174Z,25.98
2022-08-05T06:51:31.478Z,25.61
2022-08-05T06:54:02.034Z,25.08
2022-08-05T06:56:34.621Z,24.44
2022-08-05T06:59:09.594Z,24.76
2022-08-05T07:01:41.529Z,23.94
2022-08-05T07:04:10.991Z,23.87
2022-08-05T07:06:42.808Z,23.81
2022-08-05T07:09:10.970Z,23.56
2022-08-05T07:11:39.797Z,22.91
2022-08-05T07:14:47.012Z,22.46
2022-08-05T07:18:01.692Z,21.82
2022-08-05T07:20:32.429Z,21.44
2022-08-05T07:22:52.823Z,21.55
2022-08-05T07:25:22.594Z,21.38
2022-08-05T07:28:11.689Z,20.82
2022-08-05T07:30:40.458Z,20.86
2022-08-05T07:33:16.054Z,20.74
2022-08-05T07:36:04.062Z,20.48
2022-08-05T07:38:43.383Z,19.75
2022-08-05T07:42:07.881Z,19.98
2022-08-05T07:44:14.139Z,19.74
2022-08-05T07:46:49.304Z,19.82
2022-08-05T07:49:19.992Z,19.36
2022-08-05T07:51:53.269Z,18.74
2022-08-05T07:54:31.430Z,18.45
2022-08-05T07:57:17.860Z,18.33
2022-08-05T07:59:53.902Z,18.33
2022-08-05T08:02:31.430Z,18.31
2022-08-05T08:05:16.124Z,18.35
2022-08-05T08:07:59.975Z,18.09
2022-08-05T08:10:30.296Z,17.91
2022-08-05T08:12:58.896Z,18.35
2022-08-05T08:15:37.381Z,18.21
2022-08-05T08:18:15.497Z,17.85
2022-08-05T08:21:02.410Z,17.34
2022-08-05T08:24:01.768Z,17.28
2022-08-05T08:26:27.094Z,17.74
2022-08-05T08:29:21.979Z,17.72
2022-08-05T08:31:48.757Z,17.90
2022-08-05T08:34:18.593Z,18.03
2022-08-05T08:36:54.625Z,18.09
2022-08-05T08:39:25.056Z,17.92
2022-08-05T08:41:59.771Z,17.14
2022-08-05T08:45:18.645Z,17.36
2022-08-05T08:48:07.648Z,17.21
2022-08-05T08:50:31.695Z,16.85
2022-08-05T08:53:12.017Z,16.51
2022-08-05T08:56:04.015Z,16.29
2022-08-05T08:58:43.155Z,16.17
2022-08-05T09:01:18.348Z,16.05
2022-08-05T09:03:55.575Z,15.89
2022-08-05T09:06:29.939Z,15.56
2022-08-05T09:09:01.164Z,15.19
2022-08-05T09:11:51.111Z,14.82
2022-08-05T09:14:57.860Z,14.82
2022-08-05T09:17:40.008Z,14.81
2022-08-05T09:20:05.083Z,15.02
2022-08-05T09:23:18.912Z,14.89
2022-08-05T09:26:00.897Z,14.66
2022-08-05T09:28:34.693Z,14.74
2022-08-05T09:31:43.312Z,14.95
2022-08-05T09:34:10.305Z,14.48
2022-08-05T09:36:55.650Z,14.02
2022-08-05T09:39:39.178Z,14.28
2022-08-05T09:42:24.068Z,13.62
2022-08-05T09:45:17.507Z,13.53
2022-08-05T09:47:55.556Z,13.09
2022-08-05T09:50:43.866Z,13.69
2022-08-05T09:53:23.146Z,13.85
2022-08-05T09:56:04.732Z,13.58
2022-08-05T09:58:42.369Z,13.59
2022-08-05T10:01:22.349Z,13.47
2022-08-05T10:04:10.638Z,13.37
2022-08-05T10:06:58.727Z,13.72
2022-08-05T10:09:29.423Z,13.78
2022-08-05T10:12:18.767Z,13.66
2022-08-05T10:15:20.170Z,13.73
2022-08-05T10:18:07.497Z,13.59
2022-08-05T10:21:08.474Z,13.22
2022-08-05T10:23:59.688Z,13.13
2022-08-05T10:26:33.923Z,13.35
2022-08-05T10:29:02.693Z,13.23
2022-08-05T10:32:54.222Z,13.04
2022-08-05T10:34:25.758Z,12.97
2022-08-05T10:36:59.401Z,13.09
2022-08-05T10:39:59.455Z,13.27
2022-08-05T10:42:33.354Z,13.38
2022-08-05T10:45:20.818Z,13.50
2022-08-05T10:48:30.159Z,13.05
2022-08-05T10:51:01.469Z,13.23
2022-08-05T10:53:38.231Z,13.12
2022-08-05T10:56:21.495Z,13.09
2022-08-05T10:58:54.706Z,14.21
2022-08-05T11:01:55.470Z,14.21
2022-08-05T11:04:34.350Z,14.97
2022-08-05T11:07:08.116Z,15.57
2022-08-05T11:09:46.913Z,16.56
2022-08-05T11:12:25.159Z,17.25
2022-08-05T11:16:00.325Z,18.08
2022-08-05T11:18:32.486Z,17.53
2022-08-05T11:21:06.432Z,18.07
2022-08-05T11:24:04.886Z,18.51
2022-08-05T11:26:43.154Z,18.28
2022-08-05T11:29:36.085Z,18.11
2022-08-05T11:32:26.577Z,18.66
2022-08-05T11:34:56.052Z,18.99
2022-08-05T11:38:30.196Z,19.18
2022-08-05T11:41:36.820Z,18.82
2022-08-05T11:44:04.404Z,19.08
2022-08-05T11:47:09.868Z,19.18
2022-08-05T11:49:33.700Z,19.52
2022-08-05T11:52:11.391Z,19.58
2022-08-05T11:54:41.683Z,19.72
2022-08-05T11:57:24.731Z,20.00
2022-08-05T11:59:55.516Z,20.00
2022-08-05T12:02:32.013Z,20.67
2022-08-05T12:05:07.405Z,21.15
2022-08-05T12:08:07.567Z,21.45
2022-08-05T12:10:45.074Z,21.11
2022-08-05T12:13:18.942Z,20.54
2022-08-05T12:16:14.674Z,20.68
2022-08-05T12:18:49.061Z,20.54
2022-08-05T12:21:29.995Z,20.52
2022-08-05T12:24:06.967Z,20.71
2022-08-05T12:26:36.641Z,20.93
2022-08-05T12:29:09.340Z,20.98
2022-08-05T12:31:45.978Z,20.87
2022-08-05T12:34:21.515Z,20.94
2022-08-05T12:36:53.744Z,21.04
2022-08-05T12:39:28.145Z,20.79
2022-08-05T12:42:03.198Z,20.74
2022-08-05T12:44:34.019Z,20.53
2022-08-05T12:47:03.746Z,21.05
2022-08-05T12:50:04.037Z,21.49
2022-08-05T12:52:38.878Z,21.50
2022-08-05T12:55:32.884Z,21.09
2022-08-05T12:58:52.493Z,20.73
2022-08-05T13:02:03.682Z,20.36
2022-08-05T13:03:42.915Z,20.30
2022-08-05T13:06:18.201Z,21.05
2022-08-05T13:08:51.751Z,20.45
2022-08-05T13:11:46.937Z,20.69
2022-08-05T13:14:42.085Z,20.67
2022-08-05T13:17:14.614Z,20.84
2022-08-05T13:19:57.618Z,19.97
2022-08-05T13:22:27.992Z,19.98
2022-08-05T13:25:05.487Z,19.91
2022-08-05T13:27:41.788Z,19.78
2022-08-05T13:30:36.052Z,19.18
2022-08-05T13:33:02.073Z,19.51
2022-08-05T13:35:47.406Z,19.54
2022-08-05T13:38:31.095Z,19.53
2022-08-05T13:41:04.929Z,19.74
2022-08-05T13:43:45.197Z,20.15
2022-08-05T13:46:50.690Z,20.53
2022-08-05T13:49:12.923Z,21.72
2022-08-05T13:51:46.451Z,21.66
2022-08-05T13:54:21.211Z,21.38
2022-08-05T13:56:53.909Z,22.06
2022-08-05T13:59:27.456Z,22.21
2022-08-05T14:02:01.057Z,21.90
2022-08-05T14:04:56.517Z,22.55
2022-08-05T14:07:59.516Z,22.40
2022-08-05T14:10:28.411Z,22.88
2022-08-05T14:12:59.825Z,23.09
2022-08-05T14:16:04.665Z,23.27
2022-08-05T14:18:18.506Z,23.10
2022-08-05T14:20:54.484Z,23.19
2022-08-05T14:23:25.558Z,23.00
2022-08-05T14:25:59.005Z,23.14
2022-08-05T14:28:30.150Z,23.10
2022-08-05T14:31:00.565Z,23.43
2022-08-05T14:33:56.536Z,23.64
2022-08-05T14:36:20.504Z,23.54
2022-08-05T14:38:51.090Z,23.78
2022-08-05T14:41:19.764Z,23.65
2022-08-05T14:43:57.541Z,23.54
2022-08-05T14:46:31.536Z,23.60
2022-08-05T14:49:07.378Z,23.96
2022-08-05T14:51:42.629Z,23.95
2022-08-05T14:54:27.746Z,24.24
2022-08-05T14:56:59.804Z,24.40
2022-08-05T14:59:29.593Z,24.08
2022-08-05T15:02:14.960Z,24.37
2022-08-05T15:04:45.029Z,24.79
2022-08-05T15:08:08.555Z,24.38
2022-08-05T15:10:09.910Z,24.46
2022-08-05T15:12:59.823Z,24.06
2022-08-05T15:15:55.568Z,24.56
2022-08-05T15:18:17.235Z,24.46
2022-08-05T15:20:46.222Z,25.02
2022-08-05T15:23:14.465Z,24.45
2022-08-05T15:25:53.321Z,24.54
2022-08-05T15:28:27.638Z,24.94
2022-08-05T15:30:57.363Z,24.99
2022-08-05T15:34:04.332Z,24.81
2022-08-05T15:36:17.629Z,24.89
2022-08-05T15:41:02.713Z,24.98
2022-08-05T15:41:56.071Z,24.91
2022-08-05T15:44:30.828Z,25.19
2022-08-05T15:47:01.798Z,25.31
2022-08-05T15:49:48.076Z,25.56
2022-08-05T15:52:51.647Z,25.80
2022-08-05T15:55:10.549Z,26.29
2022-08-05T15:57:45.242Z,25.73
2022-08-05T16:00:16.868Z,25.71
2022-08-05T16:02:54.196Z,26.01
2022-08-05T16:05:22.988Z,26.11
2022-08-05T16:07:57.088Z,25.78
2022-08-05T16:10:26.853Z,25.44
2022-08-05T16:12:56.138Z,25.64
2022-08-05T16:15:24.709Z,25.81
2022-08-05T16:18:00.881Z,25.62
2022-08-05T16:20:32.745Z,25.31
2022-08-05T16:23:01.090Z,26.15
2022-08-05T16:25:33.861Z,26.23
2022-08-05T16:28:07.227Z,26.13
2022-08-05T16:30:38.518Z,26.15
2022-08-05T16:33:06.912Z,26.38
2022-08-05T16:35:42.982Z,26.39
2022-08-05T16:38:15.604Z,26.26
2022-08-05T16:41:00.179Z,26.68
2022-08-05T16:43:33.342Z,26.51
2022-08-05T16:46:23.860Z,26.85
2022-08-05T16:48:52.650Z,27.14
2022-08-05T16:51:20.894Z,26.93
2022-08-05T16:54:03.947Z,27.02
2022-08-05T16:56:37.203Z,27.18
2022-08-05T16:59:10.565Z,27.16
2022-08-05T17:01:54.429Z,27.08
2022-08-05T17:04:27.408Z,27.25
2022-08-05T17:07:01.471Z,27.40
2022-08-05T17:09:30.211Z,27.67
2022-08-05T17:12:00.133Z,27.53
2022-08-05T17:14:37.008Z,27.73
2022-08-05T17:17:09.432Z,28.00
2022-08-05T17:19:45.374Z,28.03
2022-08-05T17:22:25.101Z,28.27
2022-08-05T17:24:57.122Z,28.20
2022-08-05T17:27:33.832Z,28.26
2022-08-05T17:30:12.074Z,28.70
2022-08-05T17:32:47.319Z,28.37
2022-08-05T17:35:20.519Z,28.44
2022-08-05T17:37:49.577Z,28.44
2022-08-05T17:40:22.403Z,28.50
2022-08-05T17:42:52.958Z,28.68
2022-08-05T17:45:29.560Z,28.95
2022-08-05T17:48:08.201Z,28.95
2022-08-05T17:50:36.610Z,29.57
2022-08-05T17:53:05.414Z,29.96
2022-08-05T17:55:38.126Z,30.42
2022-08-05T17:58:11.146Z,31.37
2022-08-05T18:00:45.236Z,31.33
2022-08-05T18:03:56.242Z,31.91
2022-08-05T18:06:11.829Z,32.42
2022-08-05T18:08:52.202Z,32.27
2022-08-05T18:11:23.684Z,33.38
2022-08-05T18:13:54.717Z,33.09
2022-08-05T18:16:23.833Z,33.18
2022-08-05T18:18:51.952Z,34.23
2022-08-05T18:21:22.696Z,34.71
2022-08-05T18:23:53.840Z,35.49
2022-08-05T18:26:27.570Z,36.54
2022-08-05T18:28:57.903Z,37.95
2022-08-05T18:31:33.130Z,38.36
2022-08-05T18:34:06.162Z,38.77
2022-08-05T18:36:41.131Z,39.63
2022-08-05T18:39:22.633Z,40.08
2022-08-05T18:42:03.690Z,40.42
2022-08-05T18:44:49.339Z,41.16
2022-08-05T18:47:26.579Z,40.99
2022-08-05T18:50:15.553Z,41.23
2022-08-05T18:52:51.425Z,41.57
2022-08-05T18:55:21.459Z,41.81
2022-08-05T18:57:53.921Z,41.81
2022-08-05T19:00:28.626Z,42.54
2022-08-05T19:03:03.561Z,42.73
2022-08-05T19:06:13.002Z,42.13
2022-08-05T19:08:30.733Z,42.72
2022-08-05T19:11:04.578Z,42.11
2022-08-05T19:13:35.554Z,42.11
2022-08-05T19:16:25.163Z,42.45
2022-08-05T19:18:54.209Z,43.09
2022-08-05T19:21:27.451Z,43.48
2022-08-05T19:24:05.456Z,43.53
2022-08-05T19:26:54.691Z,44.17
2022-08-05T19:29:35.749Z,45.01
2022-08-05T19:32:11.254Z,45.37
2022-08-05T19:34:41.977Z,45.72
2022-08-05T19:37:35.065Z,45.83
2022-08-05T19:40:15.335Z,46.63
2022-08-05T19:43:00.784Z,47.25
2022-08-05T19:45:33.215Z,47.47
2022-08-05T19:48:06.391Z,47.58
2022-08-05T19:50:35.267Z,47.63
2022-08-05T19:53:10.543Z,47.46
2022-08-05T19:56:14.311Z,48.76
2022-08-05T19:58:29.511Z,48.93
2022-08-05T20:00:58.934Z,49.10
2022-08-05T20:03:27.590Z,49.26
2022-08-05T20:06:15.238Z,48.98
2022-08-05T20:08:47.531Z,49.19
2022-08-05T20:11:17.944Z,49.04
2022-08-05T20:13:54.862Z,49.39
2022-08-05T20:16:27.442Z,49.84
2022-08-05T20:18:56.259Z,49.69
2022-08-05T20:21:26.038Z,50.00
2022-08-05T20:23:54.356Z,51.14
2022-08-05T20:26:25.303Z,51.43
2022-08-05T20:28:57.689Z,51.54
2022-08-05T20:31:42.954Z,51.07
2022-08-05T20:34:17.463Z,51.71
2022-08-05T20:36:46.006Z,51.94
2022-08-05T20:39:16.299Z,52.01
2022-08-05T20:41:47.672Z,51.66
2022-08-05T20:44:29.891Z,51.68
2022-08-05T20:47:03.195Z,52.06
2022-08-05T20:49:33.310Z,52.32
2022-08-05T20:52:07.067Z,52.48
2022-08-05T20:54:42.917Z,52.44
2022-08-05T20:57:14.252Z,52.90
2022-08-05T21:00:10.374Z,52.69
2022-08-05T21:02:31.033Z,52.50
2022-08-05T21:04:59.374Z,52.77
2022-08-05T21:07:33.781Z,52.08
2022-08-05T21:10:18.832Z,52.03
2022-08-05T21:12:55.538Z,52.11
2022-08-05T21:15:33.866Z,52.75
2022-08-05T21:18:02.510Z,53.03
2022-08-05T21:20:32.720Z,53.13
2022-08-05T21:23:01.866Z,53.29
2022-08-05T21:25:34.024Z,52.86
2022-08-05T21:28:03.406Z,52.86
2022-08-05T21:30:31.735Z,53.73
2022-08-05T21:33:01.687Z,53.57
2022-08-05T21:35:55.364Z,54.12
2022-08-05T21:38:19.396Z,54.10
2022-08-05T21:40:47.596Z,54.29
2022-08-05T21:43:23.886Z,53.61
2022-08-05T21:45:57.917Z,53.87
2022-08-05T21:48:29.196Z,54.64
2022-08-05T21:51:00.136Z,53.94
2022-08-05T21:53:28.293Z,54.43
2022-08-05T21:56:06.022Z,53.66
2022-08-05T21:58:57.001Z,53.41
2022-08-05T22:01:26.687Z,53.78
2022-08-05T22:03:55.240Z,53.26
2022-08-05T22:06:35.361Z,53.99
2022-08-05T22:09:13.928Z,53.59
2022-08-05T22:11:46.970Z,52.42
2022-08-05T22:14:33.930Z,53.20
2022-08-05T22:17:06.986Z,52.06
2022-08-05T22:20:01.418Z,53.31
2022-08-05T22:22:25.660Z,54.28
2022-08-05T22:25:21.019Z,53.98
2022-08-05T22:28:08.498Z,53.66
2022-08-05T22:30:55.471Z,53.97
2022-08-05T22:33:58.465Z,53.90
2022-08-05T22:36:16.860Z,53.80
2022-08-05T22:38:48.336Z,53.48
2022-08-05T22:42:04.668Z,52.94
2022-08-05T22:44:09.040Z,54.34
2022-08-05T22:46:39.458Z,54.79
2022-08-05T22:50:17.760Z,55.01
2022-08-05T22:52:06.568Z,53.86
2022-08-05T22:54:36.826Z,54.25
2022-08-05T22:57:05.922Z,54.70
2022-08-05T22:59:45.372Z,54.80
2022-08-05T23:02:29.690Z,54.99
2022-08-05T23:05:01.472Z,53.90
2022-08-05T23:07:44.770Z,52.98
2022-08-05T23:10:14.723Z,52.42
2022-08-05T23:12:43.819Z,53.18
2022-08-05T23:15:12.497Z,53.04
2022-08-05T23:18:01.025Z,52.39
2022-08-05T23:20:28.971Z,52.47
2022-08-05T23:22:58.621Z,52.02
2022-08-05T23:25:54.708Z,52.34
2022-08-05T23:28:17.302Z,52.42
2022-08-05T23:30:53.069Z,52.07
2022-08-05T23:33:26.395Z,51.74
2022-08-05T23:36:13.805Z,52.04
2022-08-05T23:38:43.563Z,51.73
2022-08-05T23:41:12.784Z,51.57
2022-08-05T23:44:05.805Z,50.96
2022-08-05T23:46:29.949Z,50.98
2022-08-05T23:49:00.490Z,50.85
2022-08-05T23:51:54.125Z,50.69
2022-08-05T23:54:26.504Z,50.34
2022-08-05T23:57:03.626Z,50.12
